Upstream stations:
Downstream station:
SHEF ID: COUO2 Red River nr Courtney, OK
STATION TYPE:
ELEVATION STAGE RIV-FLOW BAT-LOAD
ft ft cfs volt
Ccp-Rev Ccp-Rev Ccp-Rev Ccp-Rev
(US/Central)
01/18 00:00 ---- 11.56 1159 11.70
01/18 01:00 ---- 11.52 1132 11.70
01/18 02:00 ---- 11.52 1132 11.70
01/18 03:00 ---- 11.52 1132 11.70
01/18 04:00 ---- 11.52 1132 11.70
01/18 05:00 ---- 11.53 1138 11.61
01/18 06:00 ---- 11.54 1145 11.61
01/18 07:00 ---- 11.57 1166 11.61
01/18 08:00 ---- 11.58 1172 11.61
01/18 09:00 ---- 11.59 1179 11.70
01/18 10:00 ---- 11.56 1159 11.77
01/18 11:00 ---- 11.58 1172 11.86
01/18 12:00 ---- 11.51 1125 11.77
01/18 13:00 ---- 11.57 1166 11.77
01/18 14:00 ---- 11.54 1145 11.77
01/18 15:00 ---- 11.54 1145 11.77
01/18 16:00 ---- 11.52 1132 11.77
01/18 17:00 ---- 11.56 1159 11.77
01/18 18:00 ---- 11.54 1145 11.77
01/18 19:00 ---- 11.54 1145 11.77
01/18 20:00 ---- 11.55 1152 11.77
01/18 21:00 ---- 11.55 1152 11.77
01/18 22:00 ---- 11.52 1132 11.77
01/18 23:00 ---- 11.55 1152 11.70